createdAt,value
2023-02-08T00:02:26.224Z,0.10
2023-02-08T00:04:53.105Z,0.20
2023-02-08T00:07:19.969Z,0.20
2023-02-08T00:09:46.919Z,0.30
2023-02-08T00:12:13.879Z,0.40
2023-02-08T00:14:40.756Z,0.40
2023-02-08T00:17:07.663Z,0.50
2023-02-08T00:19:34.604Z,0.50
2023-02-08T00:22:01.519Z,0.50
2023-02-08T00:24:28.472Z,0.50
2023-02-08T00:26:55.422Z,0.50
2023-02-08T00:29:22.362Z,0.50
2023-02-08T00:31:49.328Z,0.50
2023-02-08T00:34:16.268Z,0.50
2023-02-08T00:36:43.252Z,0.60
2023-02-08T00:39:10.146Z,0.60
2023-02-08T00:41:37.108Z,0.60
2023-02-08T00:44:04.068Z,0.60
2023-02-08T00:46:30.995Z,0.60
2023-02-08T00:48:57.971Z,0.50
2023-02-08T00:51:24.938Z,0.50
2023-02-08T00:53:51.795Z,0.50
2023-02-08T00:56:19.146Z,0.50
2023-02-08T00:58:46.716Z,0.50
2023-02-08T01:01:13.880Z,0.60
2023-02-08T01:03:41.940Z,0.60
2023-02-08T01:06:10.456Z,0.60
2023-02-08T01:08:37.490Z,0.60
2023-02-08T01:11:04.729Z,0.60
2023-02-08T01:13:31.628Z,0.50
2023-02-08T01:16:10.861Z,0.50
2023-02-08T01:18:38.509Z,0.50
2023-02-08T01:21:09.376Z,0.60
2023-02-08T01:23:36.708Z,0.60
2023-02-08T01:26:04.237Z,0.60
2023-02-08T01:28:31.208Z,0.60
2023-02-08T01:30:58.214Z,0.60
2023-02-08T01:33:25.221Z,0.60
2023-02-08T01:35:53.373Z,0.50
2023-02-08T01:38:20.601Z,0.50
2023-02-08T01:40:47.796Z,0.40
2023-02-08T01:43:34.508Z,0.40
2023-02-08T01:46:01.420Z,0.40
2023-02-08T01:48:30.236Z,0.30
2023-02-08T01:51:05.644Z,0.30
2023-02-08T01:53:33.518Z,0.20
2023-02-08T01:56:02.927Z,0.20
2023-02-08T01:58:31.737Z,0.20
2023-02-08T02:00:58.686Z,0.20
2023-02-08T02:03:25.790Z,0.10
2023-02-08T02:05:55.154Z,0.10
2023-02-08T02:08:22.248Z,0.00
2023-02-08T02:10:49.479Z,0.00
2023-02-08T02:13:21.268Z,0.00
2023-02-08T02:15:48.907Z,0.00
2023-02-08T02:18:23.599Z,0.00
2023-02-08T02:21:09.440Z,0.00
2023-02-08T02:23:48.576Z,-0.10
2023-02-08T02:26:24.288Z,-0.10
2023-02-08T02:29:00.356Z,0.00
2023-02-08T02:31:27.303Z,0.10
2023-02-08T02:34:03.280Z,0.20
2023-02-08T02:36:35.767Z,0.10
2023-02-08T02:39:05.722Z,0.00
2023-02-08T02:41:54.428Z,-0.10
2023-02-08T02:44:24.226Z,-0.20
2023-02-08T02:46:56.118Z,-0.20
2023-02-08T02:49:46.340Z,-0.30
2023-02-08T02:52:18.001Z,-0.30
2023-02-08T02:54:45.112Z,-0.30
2023-02-08T02:57:15.022Z,-0.30
2023-02-08T02:59:43.161Z,-0.20
2023-02-08T03:02:10.050Z,-0.20
2023-02-08T03:04:40.049Z,-0.30
2023-02-08T03:07:09.897Z,-0.40
2023-02-08T03:09:42.593Z,-0.50
2023-02-08T03:12:12.254Z,-0.50
2023-02-08T03:14:45.183Z,-0.50
2023-02-08T03:17:30.434Z,-0.50
2023-02-08T03:20:06.519Z,-0.60
2023-02-08T03:22:33.465Z,-0.60
2023-02-08T03:25:10.194Z,-0.60
2023-02-08T03:27:44.598Z,-0.60
2023-02-08T03:30:20.546Z,-0.50
2023-02-08T03:32:50.615Z,-0.50
2023-02-08T03:35:23.176Z,-0.40
2023-02-08T03:37:59.763Z,-0.40
2023-02-08T03:40:32.975Z,-0.50
2023-02-08T03:43:01.686Z,-0.60
2023-02-08T03:45:33.718Z,-0.70
2023-02-08T03:48:03.237Z,-0.70
2023-02-08T03:50:34.601Z,-0.80
2023-02-08T03:53:01.846Z,-0.90
2023-02-08T03:55:31.555Z,-0.90
2023-02-08T03:58:17.283Z,-0.90
2023-02-08T04:00:46.184Z,-1.00
2023-02-08T04:03:26.685Z,-1.00
2023-02-08T04:05:53.979Z,-1.00
2023-02-08T04:08:22.084Z,-0.90
2023-02-08T04:10:49.161Z,-0.90
2023-02-08T04:13:16.470Z,-0.90
2023-02-08T04:15:44.509Z,-0.90
2023-02-08T04:18:11.431Z,-1.00
2023-02-08T04:20:38.458Z,-1.00
2023-02-08T04:23:05.489Z,-1.10
2023-02-08T04:25:32.392Z,-1.20
2023-02-08T04:28:00.121Z,-1.20
2023-02-08T04:30:27.282Z,-1.10
2023-02-08T04:32:54.265Z,-1.10
2023-02-08T04:35:21.258Z,-1.10
2023-02-08T04:37:48.137Z,-1.10
2023-02-08T04:40:15.056Z,-1.10
2023-02-08T04:42:41.935Z,-1.10
2023-02-08T04:45:09.337Z,-1.10
2023-02-08T04:47:36.195Z,-1.10
2023-02-08T04:50:03.146Z,-1.10
2023-02-08T04:52:30.017Z,-1.10
2023-02-08T04:54:56.896Z,-1.10
2023-02-08T04:57:23.881Z,-1.10
2023-02-08T04:59:50.772Z,-1.00
2023-02-08T05:02:17.683Z,-1.00
2023-02-08T05:04:44.681Z,-1.00
2023-02-08T05:07:11.517Z,-1.00
2023-02-08T05:09:38.390Z,-0.90
2023-02-08T05:12:05.449Z,-0.80
2023-02-08T05:14:32.515Z,-0.80
2023-02-08T05:16:59.405Z,-0.80
2023-02-08T05:19:26.598Z,-0.80
2023-02-08T05:21:53.463Z,-0.80
2023-02-08T05:24:20.273Z,-0.80
2023-02-08T05:26:47.201Z,-0.80
2023-02-08T05:29:14.733Z,-0.80
2023-02-08T05:31:41.762Z,-0.80
2023-02-08T05:34:08.700Z,-0.80
2023-02-08T05:36:35.631Z,-0.80
2023-02-08T05:39:02.456Z,-0.90
2023-02-08T05:41:29.308Z,-0.90
2023-02-08T05:43:56.176Z,-0.90
2023-02-08T05:46:23.059Z,-1.00
2023-02-08T05:48:50.001Z,-1.00
2023-02-08T05:51:17.040Z,-1.00
2023-02-08T05:53:45.471Z,-1.00
2023-02-08T05:56:12.551Z,-1.00
2023-02-08T05:58:39.396Z,-1.10
2023-02-08T06:01:12.999Z,-1.10
2023-02-08T06:03:40.063Z,-1.10
2023-02-08T06:06:07.676Z,-1.10
2023-02-08T06:08:34.488Z,-1.10
2023-02-08T06:11:01.342Z,-1.10
2023-02-08T06:13:29.342Z,-1.00
2023-02-08T06:15:56.333Z,-1.00
2023-02-08T06:18:23.346Z,-1.00
2023-02-08T06:20:52.776Z,-1.00
2023-02-08T06:23:19.861Z,-1.00
2023-02-08T06:25:46.796Z,-1.00
2023-02-08T06:28:13.758Z,-1.00
2023-02-08T06:30:41.717Z,-1.00
2023-02-08T06:33:09.222Z,-1.10
2023-02-08T06:35:36.162Z,-1.10
2023-02-08T06:38:03.106Z,-1.00
2023-02-08T06:40:29.958Z,-1.00
2023-02-08T06:42:56.850Z,-1.00
2023-02-08T06:45:23.705Z,-1.00
2023-02-08T06:47:50.594Z,-1.00
2023-02-08T06:50:17.608Z,-1.00
2023-02-08T06:52:44.477Z,-0.90
2023-02-08T06:55:11.283Z,-0.90
2023-02-08T06:57:38.232Z,-0.80
2023-02-08T07:00:05.762Z,-0.80
2023-02-08T07:02:32.920Z,-0.70
2023-02-08T07:04:59.847Z,-0.70
2023-02-08T07:07:27.809Z,-0.70
2023-02-08T07:09:54.657Z,-0.60
2023-02-08T07:12:21.564Z,-0.60
2023-02-08T07:14:48.484Z,-0.50
2023-02-08T07:17:15.329Z,-0.50
2023-02-08T07:19:42.181Z,-0.50
2023-02-08T07:22:09.226Z,-0.40
2023-02-08T07:24:37.624Z,-0.30
2023-02-08T07:27:04.971Z,-0.30
2023-02-08T07:29:32.360Z,-0.20
2023-02-08T07:32:00.203Z,-0.10
2023-02-08T07:34:29.304Z,-0.10
2023-02-08T07:36:56.132Z,0.00
2023-02-08T07:39:23.135Z,0.00
2023-02-08T07:41:49.974Z,0.00
2023-02-08T07:44:16.817Z,0.00
2023-02-08T07:46:43.712Z,0.10
2023-02-08T07:49:10.631Z,0.20
2023-02-08T07:51:37.540Z,0.20
2023-02-08T07:54:04.648Z,0.20
2023-02-08T07:56:31.579Z,0.20
2023-02-08T07:58:58.462Z,0.20
2023-02-08T08:01:25.493Z,0.10
2023-02-08T08:03:52.739Z,0.10
2023-02-08T08:06:20.740Z,0.10
2023-02-08T08:08:47.898Z,0.10
2023-02-08T08:11:15.590Z,0.10
2023-02-08T08:13:42.775Z,0.10
2023-02-08T08:16:10.112Z,0.10
2023-02-08T08:18:37.164Z,0.10
2023-02-08T08:21:04.298Z,0.10
2023-02-08T08:23:33.394Z,0.10
2023-02-08T08:26:01.000Z,0.20
2023-02-08T08:28:28.141Z,0.30
2023-02-08T08:30:55.238Z,0.40
2023-02-08T08:33:22.142Z,0.50
2023-02-08T08:35:49.058Z,0.60
2023-02-08T08:38:15.961Z,0.80
2023-02-08T08:40:43.358Z,0.90
2023-02-08T08:43:10.319Z,1.10
2023-02-08T08:45:37.514Z,1.20
2023-02-08T08:48:04.602Z,1.40
2023-02-08T08:50:31.490Z,1.70
2023-02-08T08:52:58.419Z,2.00
2023-02-08T08:55:26.057Z,2.20
2023-02-08T08:57:53.574Z,2.50
2023-02-08T09:00:20.501Z,2.70
2023-02-08T09:02:47.446Z,2.80
2023-02-08T09:05:14.381Z,2.90
2023-02-08T09:07:41.307Z,3.10
2023-02-08T09:10:08.362Z,3.30
2023-02-08T09:12:35.363Z,3.60
2023-02-08T09:15:02.340Z,3.80
2023-02-08T09:17:29.215Z,3.90
2023-02-08T09:19:56.163Z,3.90
2023-02-08T09:22:23.086Z,4.00
2023-02-08T09:24:50.035Z,4.30
2023-02-08T09:27:19.162Z,4.70
2023-02-08T09:29:46.185Z,5.10
2023-02-08T09:32:13.087Z,5.50
2023-02-08T09:34:40.005Z,5.70
2023-02-08T09:37:07.413Z,5.80
2023-02-08T09:39:35.176Z,6.00
2023-02-08T09:42:02.085Z,6.00
2023-02-08T09:44:41.971Z,5.70
2023-02-08T09:47:12.827Z,5.40
2023-02-08T09:50:02.852Z,5.30
2023-02-08T09:52:35.155Z,5.30
2023-02-08T09:55:04.121Z,5.60
2023-02-08T09:57:34.203Z,6.00
2023-02-08T10:00:13.296Z,6.40
2023-02-08T10:02:41.997Z,6.70
2023-02-08T10:05:17.076Z,6.80
2023-02-08T10:07:44.279Z,6.90
2023-02-08T10:10:15.710Z,7.10
2023-02-08T10:12:53.808Z,7.30
2023-02-08T10:15:29.562Z,7.50
2023-02-08T10:18:19.488Z,7.80
2023-02-08T10:21:05.074Z,7.70
2023-02-08T10:23:39.038Z,7.60
2023-02-08T10:26:24.889Z,7.70
2023-02-08T10:28:54.511Z,7.70
2023-02-08T10:31:23.485Z,7.80
2023-02-08T10:33:55.008Z,7.50
2023-02-08T10:36:25.249Z,7.30
2023-02-08T10:38:54.122Z,7.10
2023-02-08T10:41:23.576Z,6.80
2023-02-08T10:44:10.949Z,6.60
2023-02-08T10:46:37.789Z,6.60
2023-02-08T10:49:08.558Z,6.60
2023-02-08T10:51:35.885Z,6.60
2023-02-08T10:54:02.979Z,6.70
2023-02-08T10:56:29.804Z,6.70
2023-02-08T10:58:58.529Z,6.60
2023-02-08T11:01:26.302Z,6.60
2023-02-08T11:04:07.722Z,6.70
2023-02-08T11:06:34.641Z,6.80
2023-02-08T11:09:01.640Z,6.90
2023-02-08T11:11:33.967Z,6.80
2023-02-08T11:14:09.235Z,6.70
2023-02-08T11:16:36.892Z,6.60
2023-02-08T11:19:07.978Z,6.50
2023-02-08T11:21:39.403Z,6.50
2023-02-08T11:24:15.562Z,6.50
2023-02-08T11:26:42.984Z,6.50
2023-02-08T11:29:18.152Z,6.60
2023-02-08T11:32:01.954Z,6.60
2023-02-08T11:34:30.190Z,6.50
2023-02-08T11:36:57.518Z,6.50
2023-02-08T11:39:27.383Z,6.40
2023-02-08T11:41:56.936Z,6.20
2023-02-08T11:44:27.534Z,6.00
2023-02-08T11:46:55.851Z,5.80
2023-02-08T11:49:27.789Z,5.70
2023-02-08T11:51:55.028Z,5.60
2023-02-08T11:54:41.556Z,5.50
2023-02-08T11:57:13.158Z,5.50
2023-02-08T11:59:39.993Z,5.50
2023-02-08T12:02:25.450Z,5.50
2023-02-08T12:04:52.393Z,5.50
2023-02-08T12:07:35.113Z,5.50
2023-02-08T12:10:04.993Z,5.60
2023-02-08T12:12:47.633Z,5.50
2023-02-08T12:15:31.767Z,5.60
2023-02-08T12:18:07.670Z,5.60
2023-02-08T12:20:39.418Z,5.70
2023-02-08T12:23:30.293Z,5.60
2023-02-08T12:26:05.458Z,5.60
2023-02-08T12:28:32.283Z,5.60
2023-02-08T12:31:03.030Z,5.60
2023-02-08T12:33:37.723Z,5.50
2023-02-08T12:36:10.858Z,5.50
2023-02-08T12:39:05.383Z,5.40
2023-02-08T12:41:46.437Z,5.40
2023-02-08T12:44:36.549Z,5.40
2023-02-08T12:47:12.281Z,5.40
2023-02-08T12:50:03.143Z,5.20
2023-02-08T12:52:36.437Z,5.20
2023-02-08T12:55:15.616Z,5.20
2023-02-08T12:57:45.146Z,5.20
2023-02-08T13:00:22.055Z,5.20
2023-02-08T13:02:57.755Z,5.20
2023-02-08T13:05:28.419Z,5.20
2023-02-08T13:07:58.771Z,5.20
2023-02-08T13:10:28.548Z,5.20
2023-02-08T13:12:57.311Z,5.30
2023-02-08T13:15:31.065Z,5.30
2023-02-08T13:17:59.344Z,5.40
2023-02-08T13:20:49.263Z,5.40
2023-02-08T13:23:43.485Z,5.40
2023-02-08T13:26:21.090Z,5.50
2023-02-08T13:28:48.976Z,5.50
2023-02-08T13:31:24.765Z,5.50
2023-02-08T13:34:01.968Z,5.50
2023-02-08T13:36:35.356Z,5.50
2023-02-08T13:39:04.040Z,5.40
2023-02-08T13:41:32.386Z,5.40
2023-02-08T13:44:02.903Z,5.40
2023-02-08T13:46:35.796Z,5.40
2023-02-08T13:49:02.624Z,5.40
2023-02-08T13:51:32.187Z,5.40
2023-02-08T13:54:19.293Z,5.40
2023-02-08T13:56:48.392Z,5.40
2023-02-08T13:59:27.237Z,5.40
2023-02-08T14:02:09.369Z,5.40
2023-02-08T14:04:37.620Z,5.50
2023-02-08T14:07:14.514Z,5.50
2023-02-08T14:09:41.415Z,5.50
2023-02-08T14:12:33.167Z,5.50
2023-02-08T14:15:23.791Z,5.40
2023-02-08T14:17:59.706Z,5.40
2023-02-08T14:20:39.877Z,5.30
2023-02-08T14:23:26.456Z,5.30
2023-02-08T14:25:55.118Z,5.30
2023-02-08T14:28:42.279Z,5.20
2023-02-08T14:31:10.731Z,5.10
2023-02-08T14:33:40.333Z,5.10
2023-02-08T14:36:19.396Z,5.00
2023-02-08T14:38:55.557Z,4.90
2023-02-08T14:41:41.274Z,4.80
2023-02-08T14:44:47.584Z,4.80
2023-02-08T14:47:26.981Z,4.70
2023-02-08T14:50:11.329Z,4.60
2023-02-08T14:52:38.781Z,4.50
2023-02-08T14:55:13.903Z,4.50
2023-02-08T14:57:41.284Z,4.50
2023-02-08T15:00:16.136Z,4.40
2023-02-08T15:02:45.600Z,4.40
2023-02-08T15:05:26.248Z,4.40
2023-02-08T15:07:53.268Z,4.30
2023-02-08T15:10:21.271Z,4.30
2023-02-08T15:12:50.367Z,4.30
2023-02-08T15:15:26.368Z,4.20
2023-02-08T15:17:53.859Z,4.20
2023-02-08T15:20:22.799Z,4.20
2023-02-08T15:22:57.780Z,4.00
2023-02-08T15:25:24.759Z,4.00
2023-02-08T15:27:53.073Z,3.90
2023-02-08T15:30:34.052Z,3.90
2023-02-08T15:33:02.078Z,3.90
2023-02-08T15:35:29.219Z,3.90
2023-02-08T15:37:56.194Z,3.80
2023-02-08T15:40:28.184Z,3.80
2023-02-08T15:42:55.415Z,3.70
2023-02-08T15:45:30.897Z,3.70
2023-02-08T15:47:58.439Z,3.70
2023-02-08T15:50:25.999Z,3.70
2023-02-08T15:53:00.692Z,3.60
2023-02-08T15:55:30.350Z,3.60
2023-02-08T15:57:57.277Z,3.60
2023-02-08T16:00:26.216Z,3.60
2023-02-08T16:02:58.064Z,3.60
2023-02-08T16:05:35.165Z,3.60
2023-02-08T16:08:02.744Z,3.60
2023-02-08T16:10:33.876Z,3.60
2023-02-08T16:13:02.692Z,3.60
2023-02-08T16:15:36.330Z,3.60
2023-02-08T16:18:03.565Z,3.60
2023-02-08T16:20:33.810Z,3.50
2023-02-08T16:23:19.559Z,3.50
2023-02-08T16:25:49.272Z,3.50
2023-02-08T16:28:25.134Z,3.40
2023-02-08T16:30:52.273Z,3.40
2023-02-08T16:33:19.872Z,3.40
2023-02-08T16:35:46.825Z,3.40
2023-02-08T16:38:18.204Z,3.50
2023-02-08T16:40:52.601Z,3.50
2023-02-08T16:43:24.690Z,3.40
2023-02-08T16:46:09.870Z,3.40
2023-02-08T16:48:41.029Z,3.40
2023-02-08T16:51:12.680Z,3.40
2023-02-08T16:53:42.523Z,3.40
2023-02-08T16:56:10.846Z,3.40
2023-02-08T16:58:37.766Z,3.30
2023-02-08T17:01:04.880Z,3.30
2023-02-08T17:03:32.821Z,3.20
2023-02-08T17:06:00.264Z,3.20
2023-02-08T17:08:27.241Z,3.20
2023-02-08T17:10:58.938Z,3.10
2023-02-08T17:13:29.242Z,3.10
2023-02-08T17:15:57.971Z,3.10
2023-02-08T17:18:24.862Z,3.10
2023-02-08T17:20:57.878Z,3.00
2023-02-08T17:23:24.937Z,3.00
2023-02-08T17:25:52.555Z,3.00
2023-02-08T17:28:21.087Z,3.00
2023-02-08T17:30:48.678Z,2.90
2023-02-08T17:33:18.853Z,2.90
2023-02-08T17:35:47.340Z,2.90
2023-02-08T17:38:15.701Z,2.90
2023-02-08T17:40:43.195Z,2.80
2023-02-08T17:43:10.522Z,2.80
2023-02-08T17:45:42.565Z,2.80
2023-02-08T17:48:10.173Z,2.80
2023-02-08T17:50:37.145Z,2.70
2023-02-08T17:53:04.233Z,2.70
2023-02-08T17:55:31.331Z,2.70
2023-02-08T17:57:58.368Z,2.60
2023-02-08T18:00:26.376Z,2.60
2023-02-08T18:02:54.718Z,2.60
2023-02-08T18:05:25.098Z,2.50
2023-02-08T18:07:52.989Z,2.60
2023-02-08T18:10:20.222Z,2.50
2023-02-08T18:12:47.426Z,2.60
2023-02-08T18:15:16.307Z,2.50
2023-02-08T18:17:43.756Z,2.50
2023-02-08T18:20:11.240Z,2.50
2023-02-08T18:22:38.276Z,2.50
2023-02-08T18:25:05.674Z,2.40
2023-02-08T18:27:32.680Z,2.40
2023-02-08T18:29:59.845Z,2.40
2023-02-08T18:32:28.391Z,2.50
2023-02-08T18:34:55.766Z,2.40
2023-02-08T18:37:23.424Z,2.40
2023-02-08T18:39:51.387Z,2.40
2023-02-08T18:42:18.716Z,2.40
2023-02-08T18:44:45.971Z,2.40
2023-02-08T18:47:13.157Z,2.40
2023-02-08T18:49:43.040Z,2.30
2023-02-08T18:52:10.458Z,2.30
2023-02-08T18:54:38.481Z,2.30
2023-02-08T18:57:06.383Z,2.30
2023-02-08T18:59:33.695Z,2.30
2023-02-08T19:02:01.927Z,2.30
2023-02-08T19:04:29.082Z,2.30
2023-02-08T19:06:56.003Z,2.20
2023-02-08T19:09:22.832Z,2.20
2023-02-08T19:11:49.822Z,2.20
2023-02-08T19:14:16.649Z,2.10
2023-02-08T19:16:43.684Z,2.10
2023-02-08T19:19:10.830Z,2.10
2023-02-08T19:21:38.354Z,2.10
2023-02-08T19:24:05.487Z,2.00
2023-02-08T19:26:39.767Z,2.00
2023-02-08T19:29:08.090Z,2.00
2023-02-08T19:31:35.197Z,2.00
2023-02-08T19:34:03.016Z,2.00
2023-02-08T19:36:31.478Z,1.90
2023-02-08T19:38:58.638Z,1.90
2023-02-08T19:41:36.100Z,1.90
2023-02-08T19:44:06.681Z,1.90
2023-02-08T19:46:34.759Z,1.90
2023-02-08T19:49:02.357Z,1.90
2023-02-08T19:51:33.232Z,1.80
2023-02-08T19:54:01.254Z,1.80
2023-02-08T19:56:31.331Z,1.80
2023-02-08T19:58:58.323Z,1.80
2023-02-08T20:01:25.388Z,1.80
2023-02-08T20:03:53.648Z,1.80
2023-02-08T20:06:26.130Z,1.90
2023-02-08T20:08:53.711Z,1.90
2023-02-08T20:11:20.618Z,1.90
2023-02-08T20:13:47.585Z,1.90
2023-02-08T20:16:14.715Z,1.90
2023-02-08T20:18:41.945Z,1.80
2023-02-08T20:21:08.863Z,1.80
2023-02-08T20:23:36.427Z,1.80
2023-02-08T20:26:13.981Z,1.80
2023-02-08T20:28:44.424Z,1.70
2023-02-08T20:31:16.278Z,1.70
2023-02-08T20:33:43.223Z,1.60
2023-02-08T20:36:12.187Z,1.60
2023-02-08T20:38:39.613Z,1.50
2023-02-08T20:41:08.319Z,1.50
2023-02-08T20:43:35.528Z,1.60
2023-02-08T20:46:06.586Z,1.50
2023-02-08T20:48:33.797Z,1.40
2023-02-08T20:51:11.070Z,1.40
2023-02-08T20:53:39.416Z,1.40
2023-02-08T20:56:10.909Z,1.40
2023-02-08T20:58:38.083Z,1.30
2023-02-08T21:01:08.904Z,1.30
2023-02-08T21:03:36.084Z,1.20
2023-02-08T21:06:13.747Z,1.20
2023-02-08T21:08:40.655Z,1.20
2023-02-08T21:11:07.593Z,1.20
2023-02-08T21:13:34.527Z,1.20
2023-02-08T21:16:04.435Z,1.20
2023-02-08T21:18:31.260Z,1.20
2023-02-08T21:20:58.320Z,1.10
2023-02-08T21:23:25.322Z,1.10
2023-02-08T21:25:52.544Z,1.20
2023-02-08T21:28:19.508Z,1.20
2023-02-08T21:30:58.841Z,1.20
2023-02-08T21:33:28.499Z,1.20
2023-02-08T21:35:55.974Z,1.20
2023-02-08T21:38:22.923Z,1.10
2023-02-08T21:40:49.791Z,1.10
2023-02-08T21:43:16.657Z,1.10
2023-02-08T21:45:43.626Z,1.10
2023-02-08T21:48:10.419Z,1.10
2023-02-08T21:50:57.130Z,1.00
2023-02-08T21:53:56.644Z,1.00
2023-02-08T21:56:23.583Z,1.00
2023-02-08T21:58:50.384Z,1.00
2023-02-08T22:01:17.311Z,1.00
2023-02-08T22:03:44.198Z,1.00
2023-02-08T22:06:11.539Z,1.10
2023-02-08T22:08:38.534Z,1.00
2023-02-08T22:11:06.194Z,1.00
2023-02-08T22:13:34.092Z,1.00
2023-02-08T22:16:02.622Z,1.10
2023-02-08T22:18:29.704Z,1.10
2023-02-08T22:20:56.531Z,1.10
2023-02-08T22:23:23.450Z,1.10
2023-02-08T22:25:50.483Z,1.00
2023-02-08T22:28:17.486Z,1.10
2023-02-08T22:30:47.122Z,1.00
2023-02-08T22:33:14.682Z,1.10
2023-02-08T22:35:41.576Z,1.10
2023-02-08T22:38:10.007Z,1.00
2023-02-08T22:40:36.997Z,1.00
2023-02-08T22:43:03.931Z,1.00
2023-02-08T22:45:30.800Z,1.00
2023-02-08T22:47:57.652Z,0.90
2023-02-08T22:50:24.570Z,0.90
2023-02-08T22:52:51.402Z,0.90
2023-02-08T22:55:18.292Z,0.90
2023-02-08T22:57:45.354Z,0.90
2023-02-08T23:00:13.841Z,0.90
2023-02-08T23:02:40.744Z,0.90
2023-02-08T23:05:07.657Z,0.90
2023-02-08T23:07:37.030Z,0.90
2023-02-08T23:10:04.020Z,0.90
2023-02-08T23:12:31.434Z,0.90
2023-02-08T23:14:58.296Z,0.90
2023-02-08T23:17:25.362Z,0.90
2023-02-08T23:19:53.313Z,0.90
2023-02-08T23:22:20.173Z,0.90
2023-02-08T23:24:47.071Z,1.00
2023-02-08T23:27:13.969Z,1.00
2023-02-08T23:29:40.850Z,1.00
2023-02-08T23:32:07.828Z,1.00
2023-02-08T23:34:35.015Z,0.90
2023-02-08T23:37:01.978Z,0.90
2023-02-08T23:39:28.815Z,0.90
2023-02-08T23:41:56.187Z,0.90
2023-02-08T23:44:23.983Z,0.90
2023-02-08T23:46:50.870Z,0.90
2023-02-08T23:49:17.834Z,0.90
2023-02-08T23:51:44.812Z,0.90
2023-02-08T23:54:11.703Z,0.90
2023-02-08T23:56:38.518Z,0.90
2023-02-08T23:59:08.369Z,0.80
